This is the latest recevied weather packets stored in our database for station/object DH5DY-6. If no packets are shown the sender has not sent any weather packets the latest 1 day(s).
| Time | Temp. | Humidity | Pressure | Rain* | Wind** | Luminosity | Snow |
|---|---|---|---|---|---|---|---|
| 1778086125 | 9.44° C | 90% | 1005.2 hPa | 0 mm | - | 32 W/m² | - |
| 1778084726 | 10° C | 90% | 1005 hPa | 0 mm | - | 83 W/m² | - |
| 1778083725 | 10° C | 90% | 1004.9 hPa | 0 mm | - | 60 W/m² | - |
| 1778082525 | 10.56° C | 90% | 1004.9 hPa | 0 mm | - | 91 W/m² | - |
| 1778079525 | 10.56° C | 91% | 1004.5 hPa | 0 mm | - | 93 W/m² | - |
| 1778078325 | 11.11° C | 90% | 1004.3 hPa | 0 mm | - | 105 W/m² | - |
| 1778077725 | 11.67° C | 91% | 1004.2 hPa | 0 mm | - | 148 W/m² | - |
| 1778076525 | 11.67° C | 91% | 1004.1 hPa | 0.25 mm | - | 128 W/m² | - |
| 1778075925 | 11.67° C | 92% | 1004.1 hPa | 0.51 mm | - | 102 W/m² | - |
| 1778075325 | 11.67° C | 91% | 1004 hPa | 0.76 mm | - | 116 W/m² | - |
| 1778074725 | 11.67° C | 92% | 1004 hPa | 1.52 mm | - | 156 W/m² | - |
| 1778074124 | 11.11° C | 92% | 1003.9 hPa | 1.52 mm | - | 144 W/m² | - |
| 1778073525 | 11.11° C | 92% | 1003.8 hPa | 1.52 mm | - | 135 W/m² | - |
| 1778072924 | 11.67° C | 93% | 1003.8 hPa | 1.52 mm | - | 185 W/m² | - |
| 1778072324 | 11.67° C | 93% | 1003.9 hPa | 1.27 mm | - | 206 W/m² | - |
| 1778070524 | 11.67° C | 92% | 1003.7 hPa | 0.76 mm | - | 109 W/m² | - |
| 1778069324 | 11.67° C | 93% | 1003.5 hPa | 1.02 mm | - | 225 W/m² | - |
| 1778068724 | 11.67° C | 94% | 1003.5 hPa | 1.27 mm | - | 257 W/m² | - |
| 1778067524 | 11.67° C | 94% | 1003.5 hPa | 0.76 mm | - | 127 W/m² | - |
| 1778066924 | 11.67° C | 93% | 1003.3 hPa | 0.51 mm | - | 148 W/m² | - |
| 1778065724 | 11.67° C | 93% | 1003.5 hPa | 0.51 mm | - | 114 W/m² | - |
| 1778065123 | 11.67° C | 92% | 1003.4 hPa | 0.51 mm | - | 70 W/m² | - |
| 1778064523 | 11.67° C | 93% | 1003.4 hPa | 0.51 mm | - | 104 W/m² | - |
| 1778063924 | 12.22° C | 93% | 1003.4 hPa | 0.51 mm | - | 93 W/m² | - |
| 1778062723 | 11.67° C | 94% | 1003.3 hPa | 0.51 mm | - | 165 W/m² | - |
* Rain latest hour (hover to see other rain measurements)
** Current wind speed in m/s (hover to see current wind gust speed)